• Join FlightAware (Why Join?)
  • Login
  • US Flag 
01:23PM EDT


 

Airport Tracker/Info


-or-


 

Live Flight TrackerFlight Track Log ✈ ASQ3843 ✈ 13-Jul-2013 ✈ KORD - KORF

Flight Track Log - Related Links

Times and Time Zones

All times are in EDT time to prevent confusion due to time zone crossing. See the ASQ3843 flight status page for this flight to view local times or setup timezone preferences in your user account.

Time Position Orientation Groundspeed Altitude Reporting Facility
EDT Latitude Longitude Course Direction KTS MPH feet Rate Location/Type
12:09AM 41.9667 -87.9500 169° South 197 227 2,100  Level Chicago TRACON
12:10AM 41.9667 -88.0167 270° West 234 269 4,100 1,860 Climbing Chicago TRACON
12:11AM 41.9167 -88.0000 166° South 243 280 5,900 1,980 Climbing Chicago TRACON
12:12AM 41.8491 -87.5361 157° South  Level Estimated
12:13AM 41.8047 -87.4130 156° South  Level Estimated
12:13AM 41.8467 -87.9392 147° Southeast 250 288 8,700  Level Chicago Center
12:14AM 41.7088 -87.4593 200° South  Level FlightAware Approximate
12:14AM 41.7831 -87.8972 154° Southeast 259 298 10,800  Level Chicago Center
12:15AM 41.6652 -87.3358 169° South  Level Estimated
12:15AM 41.7078 -87.8647 162° South 282 325 11,800  Level Chicago Center
12:16AM 41.6033 -87.8189 162° South 328 377 12,800 900 Climbing Chicago Center
12:17AM 41.5089 -87.7786 162° South 350 403 13,700 840 Climbing Chicago Center
12:18AM 41.4317 -87.7458 162° South 359 413 14,600 1,140 Climbing Chicago Center
12:19AM 41.3183 -87.6975 162° South 355 409 16,000 1,260 Climbing Chicago Center
12:20AM 41.2256 -87.6586 163° South 351 404 17,200 1,080 Climbing Chicago Center
12:21AM 41.1344 -87.6189 162° South 348 400 18,200 1,080 Climbing Chicago Center
12:22AM 41.0419 -87.5806 163° South 347 399 19,400 1,140 Climbing Chicago Center
12:23AM 40.9500 -87.5406 162° South 350 403 20,500 1,140 Climbing Chicago Center
12:24AM 40.8575 -87.5019 162° South 349 402 21,700 1,140 Climbing Chicago Center
12:25AM 40.7656 -87.4636 162° South 348 400 22,900 1,200 Climbing Chicago Center
12:26AM 40.6733 -87.4272 163° South 347 399 24,100 1,140 Climbing Chicago Center
12:27AM 40.5844 -87.3906 163° South 339 390 25,300 1,140 Climbing Chicago Center
12:28AM 40.4975 -87.3531 162° South 331 381 26,400 1,080 Climbing Chicago Center
12:29AM 40.4217 -87.3056 155° Southeast 329 379 27,500 1,140 Climbing Chicago Center
12:30AM 40.3867 -87.1967 113° Southeast 330 380 28,700 1,200 Climbing Chicago Center
12:31AM 40.3567 -87.0853 109° East 327 376 29,900 1,140 Climbing Chicago Center
12:32AM 40.3275 -86.9744 109° East 324 373 31,100 1,080 Climbing Chicago Center
12:33AM 40.2992 -86.8617 108° East 325 374 32,100 960 Climbing Chicago Center
12:34AM 40.2703 -86.7472 108° East 330 380 33,100 900 Climbing Chicago Center
12:35AM 40.2400 -86.6328 109° East 332 382 34,000 840 Climbing Chicago Center
12:36AM 40.2092 -86.5150 109° East 337 388 34,800 480 Climbing Chicago Center
12:37AM 40.1783 -86.3950 109° East 341 392 35,000 60 Climbing Chicago Center
12:38AM 40.1439 -86.2644 109° East 357 411 35,000  Level Chicago Center
12:39AM 40.1044 -86.1244 110° East 396 456 35,000  Level Indianapolis Center
12:40AM 40.0667 -85.9819 109° East 410 472 35,000  Level Indianapolis Center
12:41AM 40.0289 -85.8414 109° East 409 471 35,000  Level Indianapolis Center
12:42AM 39.9911 -85.7056 110° East 401 461 35,000  Level Indianapolis Center
12:43AM 39.9533 -85.5658 109° East 408 470 35,000  Level Indianapolis Center
12:44AM 39.9136 -85.4247 110° East 414 476 35,000  Level Indianapolis Center
12:45AM 39.8736 -85.2811 110° East 421 484 35,000  Level Indianapolis Center
12:46AM 39.8353 -85.1394 109° East 418 481 35,000  Level Indianapolis Center
12:47AM 39.7950 -84.9994 110° East 415 478 35,000  Level Indianapolis Center
12:48AM 39.7539 -84.8517 110° East 414 476 35,000  Level Indianapolis Center
12:49AM 39.7144 -84.7108 110° East 413 475 35,000  Level Indianapolis Center
12:50AM 39.6739 -84.5700 110° East 414 476 35,000  Level Indianapolis Center
12:51AM 39.6322 -84.4292 111° Southeast 415 478 35,000  Level Indianapolis Center
12:52AM 39.5936 -84.2889 110° East 412 474 35,000  Level Indianapolis Center
12:53AM 39.5533 -84.1522 111° Southeast 407 468 35,000  Level Indianapolis Center
12:54AM 39.5131 -84.0128 110° East 410 472 35,000  Level Indianapolis Center
12:55AM 39.4725 -83.8728 111° Southeast 415 478 35,000  Level Indianapolis Center
12:56AM 39.4306 -83.7300 111° Southeast 421 484 35,000  Level Indianapolis Center
12:57AM 39.3878 -83.5872 111° Southeast 425 489 35,000  Level Indianapolis Center
12:58AM 39.3453 -83.4433 111° Southeast 427 491 35,000  Level Indianapolis Center
12:59AM 39.3025 -83.3008 111° Southeast 425 489 35,000  Level Indianapolis Center
01:00AM 39.2611 -83.1575 110° East 425 489 35,000  Level Indianapolis Center
01:01AM 39.2186 -83.0164 111° Southeast 421 484 35,000  Level Indianapolis Center
01:02AM 39.1756 -82.8744 111° Southeast 422 486 35,000  Level Indianapolis Center
01:03AM 39.1392 -82.7517 111° Southeast 420 483 35,000  Level Indianapolis Center
01:04AM 39.0953 -82.6097 112° Southeast 422 486 35,000  Level Indianapolis Center
01:05AM 39.0522 -82.4708 112° Southeast 419 482 35,000  Level Indianapolis Center
01:06AM 39.0092 -82.3306 112° Southeast 421 484 35,000  Level Indianapolis Center
01:07AM 38.9667 -82.1942 112° Southeast 412 474 35,000  Level Indianapolis Center
01:08AM 38.9242 -82.0556 111° Southeast 415 478 35,000  Level Indianapolis Center
01:09AM 38.8811 -81.9189 112° Southeast 413 475 35,000  Level Indianapolis Center
01:10AM 38.8383 -81.7819 112° Southeast 413 475 35,000  Level Indianapolis Center
01:11AM 38.7953 -81.6442 112° Southeast 413 475 35,000  Level Indianapolis Center
01:12AM 38.7436 -81.4867 113° Southeast 421 484 35,000  Level Indianapolis Center
01:13AM 38.7011 -81.3511 112° Southeast 413 475 35,000  Level Indianapolis Center
01:14AM 38.6572 -81.2156 112° Southeast 425 489 35,000  Level Indianapolis Center
01:15AM 38.6122 -81.0778 113° Southeast 419 482 35,000  Level Indianapolis Center
01:16AM 38.5669 -80.9378 112° Southeast 426 490 35,000  Level Indianapolis Center
01:17AM 38.5211 -80.7983 113° Southeast 428 493 35,000  Level Indianapolis Center
01:18AM 38.4764 -80.6594 112° Southeast 424 488 35,000  Level Indianapolis Center
01:19AM 38.4294 -80.5197 113° Southeast 426 490 35,000  Level Indianapolis Center
01:20AM 38.3783 -80.3700 113° Southeast 423 487 35,000  Level Washington Center
01:21AM 38.3319 -80.2267 112° Southeast 423 487 35,000  Level Washington Center
01:22AM 38.2833 -80.0781 113° Southeast 423 487 35,000  Level Washington Center
01:23AM 38.2364 -79.9406 113° Southeast 423 487 35,000  Level Washington Center
01:24AM 38.1911 -79.8031 113° Southeast 423 487 35,000  Level Washington Center
01:25AM 38.1439 -79.6631 113° Southeast 423 487 35,000  Level Washington Center
01:26AM 38.0983 -79.5261 113° Southeast 423 487 35,000  Level Washington Center
01:27AM 38.0564 -79.4025 113° Southeast 423 487 35,000  Level Washington Center
01:28AM 38.0086 -79.2631 113° Southeast 423 487 35,000 -420 Level Washington Center
01:29AM 37.9608 -79.1211 113° Southeast 423 487 34,200 -900 Descending Washington Center
01:30AM 37.9106 -78.9792 114° Southeast 423 487 33,200 -960 Descending Washington Center
01:31AM 37.8622 -78.8428 114° Southeast 423 487 32,300 -1,020 Descending Washington Center
01:32AM 37.8100 -78.6908 113° Southeast 423 487 31,200 -1,020 Descending Washington Center
01:33AM 37.7614 -78.5522 114° Southeast 423 487 30,300 -960 Descending Washington Center
01:34AM 37.7125 -78.4139 114° Southeast 428 493 29,300 -960 Descending Washington Center
01:35AM 37.6617 -78.2703 114° Southeast 433 498 28,400 -960 Descending Washington Center
01:36AM 37.6083 -78.1319 116° Southeast 433 498 27,400 -960 Descending Washington Center
01:37AM 37.5569 -77.9914 115° Southeast 433 498 26,500 -960 Descending Washington Center
01:38AM 37.5056 -77.8511 115° Southeast 433 498 25,500 -1,020 Descending Washington Center
01:39AM 37.4558 -77.7136 114° Southeast 433 498 24,600 -960 Descending Washington Center
01:40AM 37.4061 -77.5764 114° Southeast 428 493 23,600 -960 Descending Washington Center
01:41AM 37.3561 -77.4417 115° Southeast 428 493 22,700 -1,080 Descending Washington Center
01:42AM 37.3119 -77.3206 115° Southeast 422 486 21,500 -1,320 Descending Washington Center
01:43AM 37.2617 -77.1889 116° Southeast 422 486 20,100 -1,440 Descending Washington Center
01:44AM 37.2172 -77.0628 114° Southeast 411 473 18,700 -1,500 Descending Washington Center
01:45AM 37.1686 -76.9394 116° Southeast 399 459 17,100 -1,980 Descending Washington Center
01:46AM 37.1242 -76.8161 114° Southeast 394 453 14,700 -2,280 Descending Washington Center
01:47AM 37.0833 -76.7089 115° Southeast 368 423 12,600 -2,220 Descending Washington Center
01:48AM 37.0447 -76.6014 114° Southeast 323 372 10,400 -1,920 Descending Washington Center
01:49AM 37.0183 -76.5153 111° Southeast 291 335 8,900 -1,740 Descending Washington Center
01:50AM 37.0044 -76.4214 100° East 268 308 7,000 -1,800 Descending Washington Center
01:51AM 36.9944 -76.3356 98° East 256 295 5,300 -1,560 Descending Washington Center
01:53AM 36.9806 -76.2236 99° East 218 251 3,300 -1,380 Descending Washington Center